createdAt,value
2023-09-11T00:01:02.398Z,79.22
2023-09-11T00:03:30.273Z,79.28
2023-09-11T00:06:07.781Z,79.34
2023-09-11T00:08:36.127Z,79.33
2023-09-11T00:11:04.816Z,79.34
2023-09-11T00:13:32.998Z,79.35
2023-09-11T00:16:00.932Z,79.38
2023-09-11T00:18:28.700Z,79.38
2023-09-11T00:20:56.454Z,79.39
2023-09-11T00:23:24.248Z,79.29
2023-09-11T00:25:51.936Z,79.19
2023-09-11T00:28:19.782Z,79.13
2023-09-11T00:30:47.438Z,78.99
2023-09-11T00:33:15.264Z,78.86
2023-09-11T00:35:46.786Z,78.75
2023-09-11T00:38:14.590Z,78.69
2023-09-11T00:40:42.237Z,78.73
2023-09-11T00:43:09.849Z,78.78
2023-09-11T00:45:37.822Z,78.72
2023-09-11T00:48:06.216Z,78.63
2023-09-11T00:50:34.395Z,78.48
2023-09-11T00:53:04.192Z,78.42
2023-09-11T00:55:31.989Z,78.36
2023-09-11T00:57:59.679Z,78.23
2023-09-11T01:00:27.809Z,78.12
2023-09-11T01:02:55.923Z,78.10
2023-09-11T01:05:24.187Z,78.08
2023-09-11T01:07:52.018Z,77.95
2023-09-11T01:10:19.780Z,77.83
2023-09-11T01:12:47.700Z,77.61
2023-09-11T01:15:15.330Z,77.54
2023-09-11T01:18:08.608Z,77.54
2023-09-11T01:20:51.226Z,77.42
2023-09-11T01:23:50.129Z,77.45
2023-09-11T01:27:07.639Z,77.49
2023-09-11T01:29:35.920Z,77.39
2023-09-11T01:32:06.556Z,77.32
2023-09-11T01:34:34.248Z,77.35
2023-09-11T01:37:01.901Z,77.34
2023-09-11T01:39:29.789Z,77.31
2023-09-11T01:42:01.922Z,77.26
2023-09-11T01:44:44.882Z,77.23
2023-09-11T01:47:17.343Z,77.21
2023-09-11T01:49:47.069Z,77.17
2023-09-11T01:52:16.869Z,77.16
2023-09-11T01:54:44.862Z,77.16
2023-09-11T01:57:12.597Z,77.10
2023-09-11T01:59:40.274Z,77.06
2023-09-11T02:02:07.923Z,77.03
2023-09-11T02:04:35.650Z,76.93
2023-09-11T02:07:03.369Z,76.84
2023-09-11T02:09:31.079Z,76.82
2023-09-11T02:11:59.570Z,76.84
2023-09-11T02:14:29.197Z,76.80
2023-09-11T02:17:04.121Z,76.74
2023-09-11T02:19:33.140Z,76.69
2023-09-11T02:22:01.645Z,76.74
2023-09-11T02:24:29.298Z,76.74
2023-09-11T02:26:58.221Z,76.72
2023-09-11T02:29:26.270Z,76.66
2023-09-11T02:31:54.281Z,76.62
2023-09-11T02:34:22.273Z,76.67
2023-09-11T02:36:50.093Z,76.70
2023-09-11T02:39:18.026Z,76.62
2023-09-11T02:41:45.964Z,76.62
2023-09-11T02:44:13.870Z,76.53
2023-09-11T02:46:41.811Z,76.49
2023-09-11T02:49:09.826Z,76.52
2023-09-11T02:51:37.818Z,76.53
2023-09-11T02:54:05.922Z,76.55
2023-09-11T02:56:35.757Z,76.54
2023-09-11T02:59:03.753Z,76.47
2023-09-11T03:01:31.668Z,76.40
2023-09-11T03:03:59.546Z,76.31
2023-09-11T03:06:27.574Z,76.34
2023-09-11T03:08:58.167Z,76.38
2023-09-11T03:11:26.309Z,76.31
2023-09-11T03:13:54.315Z,76.34
2023-09-11T03:16:22.146Z,76.43
2023-09-11T03:18:50.170Z,76.38
2023-09-11T03:21:18.170Z,76.34
2023-09-11T03:23:46.464Z,76.35
2023-09-11T03:26:18.230Z,76.33
2023-09-11T03:28:52.817Z,76.29
2023-09-11T03:31:20.999Z,76.27
2023-09-11T03:33:49.285Z,76.20
2023-09-11T03:36:18.646Z,76.20
2023-09-11T03:38:46.982Z,76.15
2023-09-11T03:41:15.801Z,76.14
2023-09-11T03:43:43.700Z,76.09
2023-09-11T03:46:14.032Z,76.11
2023-09-11T03:48:42.905Z,75.99
2023-09-11T03:51:11.182Z,75.92
2023-09-11T03:53:44.479Z,75.76
2023-09-11T03:56:16.089Z,75.70
2023-09-11T03:58:47.547Z,75.61
2023-09-11T04:01:15.438Z,75.54
2023-09-11T04:03:44.535Z,75.46
2023-09-11T04:06:12.764Z,75.32
2023-09-11T04:08:40.774Z,75.27
2023-09-11T04:11:08.728Z,75.18
2023-09-11T04:13:36.759Z,75.25
2023-09-11T04:16:04.916Z,75.25
2023-09-11T04:18:33.038Z,75.27
2023-09-11T04:21:05.082Z,75.16
2023-09-11T04:23:33.073Z,75.15
2023-09-11T04:26:01.389Z,75.36
2023-09-11T04:28:29.366Z,75.35
2023-09-11T04:30:57.309Z,75.30
2023-09-11T04:33:25.219Z,75.41
2023-09-11T04:35:53.056Z,75.64
2023-09-11T04:38:20.960Z,75.73
2023-09-11T04:40:48.584Z,75.84
2023-09-11T04:43:16.366Z,75.88
2023-09-11T04:45:44.104Z,76.00
2023-09-11T04:48:11.815Z,76.03
2023-09-11T04:50:39.633Z,76.07
2023-09-11T04:53:07.382Z,76.06
2023-09-11T04:55:35.025Z,75.92
2023-09-11T04:58:02.710Z,75.75
2023-09-11T05:00:31.903Z,75.61
2023-09-11T05:02:59.837Z,75.98
2023-09-11T05:05:27.766Z,76.15
2023-09-11T05:07:55.997Z,76.13
2023-09-11T05:10:23.588Z,76.06
2023-09-11T05:12:51.214Z,76.19
2023-09-11T05:15:18.916Z,76.32
2023-09-11T05:17:46.585Z,76.25
2023-09-11T05:20:14.319Z,76.07
2023-09-11T05:22:42.027Z,75.91
2023-09-11T05:25:10.422Z,75.59
2023-09-11T05:27:38.306Z,75.36
2023-09-11T05:30:06.876Z,75.24
2023-09-11T05:32:35.344Z,75.61
2023-09-11T05:35:04.042Z,75.97
2023-09-11T05:37:32.100Z,76.23
2023-09-11T05:40:01.972Z,76.59
2023-09-11T05:42:30.341Z,76.59
2023-09-11T05:44:58.331Z,76.78
2023-09-11T05:47:26.534Z,76.68
2023-09-11T05:49:54.478Z,76.13
2023-09-11T05:52:22.315Z,76.02
2023-09-11T05:54:50.201Z,75.78
2023-09-11T05:57:18.150Z,75.57
2023-09-11T05:59:47.461Z,75.16
2023-09-11T06:02:15.578Z,75.00
2023-09-11T06:04:43.653Z,74.80
2023-09-11T06:07:12.836Z,74.55
2023-09-11T06:09:41.001Z,74.38
2023-09-11T06:12:09.267Z,74.07
2023-09-11T06:14:40.088Z,73.97
2023-09-11T06:17:07.926Z,73.72
2023-09-11T06:19:39.735Z,73.63
2023-09-11T06:22:07.780Z,73.24
2023-09-11T06:24:35.690Z,73.12
2023-09-11T06:27:08.443Z,72.88
2023-09-11T06:29:36.537Z,72.57
2023-09-11T06:32:05.011Z,72.65
2023-09-11T06:34:33.236Z,72.63
2023-09-11T06:37:01.235Z,72.57
2023-09-11T06:39:29.949Z,72.59
2023-09-11T06:41:57.948Z,72.59
2023-09-11T06:44:25.785Z,72.09
2023-09-11T06:46:54.035Z,72.02
2023-09-11T06:49:22.258Z,71.96
2023-09-11T06:51:51.186Z,71.90
2023-09-11T06:54:19.095Z,72.04
2023-09-11T06:56:48.535Z,71.79
2023-09-11T06:59:16.524Z,71.44
2023-09-11T07:01:44.508Z,71.48
2023-09-11T07:04:12.904Z,71.42
2023-09-11T07:06:41.996Z,71.23
2023-09-11T07:09:10.451Z,70.83
2023-09-11T07:11:38.731Z,70.71
2023-09-11T07:14:10.265Z,71.14
2023-09-11T07:16:38.159Z,71.34
2023-09-11T07:19:06.153Z,71.22
2023-09-11T07:21:34.126Z,71.03
2023-09-11T07:24:02.010Z,70.65
2023-09-11T07:26:30.295Z,70.54
2023-09-11T07:29:02.650Z,70.32
2023-09-11T07:31:32.737Z,70.83
2023-09-11T07:34:01.149Z,71.08
2023-09-11T07:36:30.756Z,71.43
2023-09-11T07:38:58.961Z,71.61
2023-09-11T07:41:26.914Z,71.39
2023-09-11T07:43:55.794Z,71.19
2023-09-11T07:46:27.431Z,71.02
2023-09-11T07:48:58.549Z,70.87
2023-09-11T07:51:28.033Z,70.65
2023-09-11T07:53:55.949Z,70.57
2023-09-11T07:56:24.205Z,70.42
2023-09-11T07:58:52.063Z,70.47
2023-09-11T08:01:20.196Z,70.70
2023-09-11T08:03:49.100Z,70.83
2023-09-11T08:06:17.179Z,71.06
2023-09-11T08:08:45.157Z,71.04
2023-09-11T08:11:18.072Z,70.79
2023-09-11T08:13:51.631Z,70.07
2023-09-11T08:16:19.732Z,69.67
2023-09-11T08:18:47.874Z,69.47
2023-09-11T08:21:18.249Z,69.43
2023-09-11T08:23:46.262Z,69.37
2023-09-11T08:26:18.949Z,69.14
2023-09-11T08:28:46.869Z,69.26
2023-09-11T08:31:14.575Z,69.62
2023-09-11T08:36:16.203Z,69.47
2023-09-11T08:38:46.336Z,69.10
2023-09-11T08:41:18.852Z,69.31
2023-09-11T08:43:46.608Z,69.06
2023-09-11T08:46:19.792Z,69.09
2023-09-11T08:48:50.890Z,69.28
2023-09-11T08:51:24.405Z,69.31
2023-09-11T08:53:56.316Z,68.97
2023-09-11T08:56:24.503Z,68.57
2023-09-11T08:58:53.621Z,68.05
2023-09-11T09:01:22.728Z,67.79
2023-09-11T09:03:53.628Z,67.79
2023-09-11T09:06:21.629Z,67.62
2023-09-11T09:08:49.888Z,67.65
2023-09-11T09:11:18.308Z,67.68
2023-09-11T09:13:45.987Z,67.61
2023-09-11T09:16:13.792Z,67.61
2023-09-11T09:18:49.758Z,67.56
2023-09-11T09:21:19.299Z,67.57
2023-09-11T09:23:47.042Z,67.56
2023-09-11T09:26:15.905Z,67.29
2023-09-11T09:28:48.964Z,67.03
2023-09-11T09:31:26.754Z,66.94
2023-09-11T09:33:57.629Z,67.09
2023-09-11T09:36:29.859Z,66.84
2023-09-11T09:38:58.559Z,66.80
2023-09-11T09:41:26.414Z,67.08
2023-09-11T09:43:56.085Z,66.87
2023-09-11T09:46:24.690Z,66.76
2023-09-11T09:48:53.288Z,66.64
2023-09-11T09:51:22.814Z,66.58
2023-09-11T09:53:55.123Z,66.46
2023-09-11T09:56:23.326Z,66.44
2023-09-11T09:58:52.690Z,66.20
2023-09-11T10:01:23.889Z,66.05
2023-09-11T10:03:55.084Z,66.08
2023-09-11T10:06:28.245Z,66.24
2023-09-11T10:09:11.922Z,66.01
2023-09-11T10:11:43.051Z,66.04
2023-09-11T10:14:12.705Z,66.01
2023-09-11T10:16:47.544Z,65.80
2023-09-11T10:19:18.578Z,65.82
2023-09-11T10:21:47.648Z,65.60
2023-09-11T10:24:16.375Z,65.62
2023-09-11T10:26:53.134Z,65.64
2023-09-11T10:29:50.677Z,65.42
2023-09-11T10:32:27.594Z,65.39
2023-09-11T10:34:55.487Z,65.60
2023-09-11T10:37:23.445Z,65.57
2023-09-11T10:39:53.165Z,65.42
2023-09-11T10:42:21.045Z,65.04
2023-09-11T10:44:48.810Z,64.87
2023-09-11T10:47:17.011Z,64.63
2023-09-11T10:49:51.209Z,64.54
2023-09-11T10:52:19.057Z,64.39
2023-09-11T10:54:48.790Z,64.39
2023-09-11T10:57:16.490Z,64.70
2023-09-11T10:59:44.251Z,64.63
2023-09-11T11:02:12.124Z,64.98
2023-09-11T11:04:41.169Z,64.76
2023-09-11T11:07:09.550Z,64.81
2023-09-11T11:09:42.374Z,64.88
2023-09-11T11:12:14.844Z,64.98
2023-09-11T11:14:43.244Z,64.78
2023-09-11T11:17:12.881Z,64.57
2023-09-11T11:20:02.153Z,64.23
2023-09-11T11:22:36.137Z,64.17
2023-09-11T11:25:08.936Z,64.04
2023-09-11T11:27:39.596Z,64.03
2023-09-11T11:30:08.018Z,64.11
2023-09-11T11:32:41.036Z,64.19
2023-09-11T11:35:11.198Z,64.42
2023-09-11T11:37:45.577Z,64.31
2023-09-11T11:40:15.005Z,64.26
2023-09-11T11:42:43.033Z,64.14
2023-09-11T11:45:11.623Z,63.67
2023-09-11T11:47:39.563Z,63.56
2023-09-11T11:50:14.208Z,63.55
2023-09-11T11:52:50.849Z,63.38
2023-09-11T11:55:22.902Z,63.38
2023-09-11T11:57:53.829Z,63.60
2023-09-11T12:00:30.426Z,63.63
2023-09-11T12:03:05.689Z,63.40
2023-09-11T12:05:33.761Z,63.35
2023-09-11T12:08:03.313Z,63.47
2023-09-11T12:10:32.870Z,63.59
2023-09-11T12:13:00.625Z,63.75
2023-09-11T12:15:30.405Z,63.79
2023-09-11T12:17:59.689Z,64.07
2023-09-11T12:20:27.375Z,64.32
2023-09-11T12:22:55.057Z,64.45
2023-09-11T12:25:22.905Z,64.58
2023-09-11T12:27:51.735Z,64.63
2023-09-11T12:30:20.446Z,64.71
2023-09-11T12:32:48.595Z,64.59
2023-09-11T12:35:31.370Z,64.78
2023-09-11T12:37:59.316Z,64.92
2023-09-11T12:40:27.288Z,65.01
2023-09-11T12:42:56.190Z,65.23
2023-09-11T12:45:24.249Z,65.41
2023-09-11T12:47:52.690Z,65.40
2023-09-11T12:50:22.862Z,65.52
2023-09-11T12:52:51.828Z,65.62
2023-09-11T12:55:21.652Z,65.53
2023-09-11T12:57:53.256Z,65.53
2023-09-11T13:00:31.973Z,65.61
2023-09-11T13:03:05.006Z,66.05
2023-09-11T13:05:34.255Z,66.25
2023-09-11T13:08:10.289Z,66.70
2023-09-11T13:10:38.359Z,67.03
2023-09-11T13:13:08.306Z,67.21
2023-09-11T13:15:37.670Z,67.11
2023-09-11T13:18:05.827Z,66.99
2023-09-11T13:20:33.817Z,66.88
2023-09-11T13:23:03.693Z,66.70
2023-09-11T13:25:31.660Z,66.59
2023-09-11T13:27:59.634Z,66.42
2023-09-11T13:30:27.609Z,66.37
2023-09-11T13:32:55.409Z,66.49
2023-09-11T13:35:23.104Z,66.71
2023-09-11T13:37:51.005Z,67.15
2023-09-11T13:40:18.667Z,67.34
2023-09-11T13:42:47.294Z,67.32
2023-09-11T13:45:16.850Z,67.38
2023-09-11T13:47:44.989Z,67.67
2023-09-11T13:50:13.364Z,67.75
2023-09-11T13:52:41.145Z,67.65
2023-09-11T13:55:09.449Z,67.59
2023-09-11T13:57:37.328Z,67.50
2023-09-11T14:00:07.267Z,67.70
2023-09-11T14:02:36.378Z,67.70
2023-09-11T14:05:04.955Z,67.62
2023-09-11T14:07:32.851Z,67.48
2023-09-11T14:10:07.496Z,67.52
2023-09-11T14:12:37.680Z,67.66
2023-09-11T14:15:05.786Z,67.85
2023-09-11T14:17:33.393Z,67.93
2023-09-11T14:20:01.175Z,68.12
2023-09-11T14:22:28.830Z,68.14
2023-09-11T14:24:56.606Z,68.08
2023-09-11T14:27:24.604Z,67.82
2023-09-11T14:29:52.548Z,67.59
2023-09-11T14:32:25.081Z,67.58
2023-09-11T14:34:55.044Z,67.55
2023-09-11T14:37:23.895Z,67.74
2023-09-11T14:39:52.448Z,67.84
2023-09-11T14:42:20.440Z,67.77
2023-09-11T14:44:48.293Z,67.96
2023-09-11T14:47:16.665Z,68.05
2023-09-11T14:49:47.717Z,68.13
2023-09-11T14:52:15.692Z,68.15
2023-09-11T14:54:53.800Z,68.20
2023-09-11T14:57:23.666Z,68.28
2023-09-11T14:59:52.061Z,68.24
2023-09-11T15:02:22.644Z,68.68
2023-09-11T15:04:52.605Z,68.88
2023-09-11T15:07:21.425Z,68.84
2023-09-11T15:09:52.778Z,68.81
2023-09-11T15:12:20.812Z,68.68
2023-09-11T15:14:52.317Z,68.85
2023-09-11T15:17:20.337Z,68.83
2023-09-11T15:19:48.430Z,68.72
2023-09-11T15:22:16.378Z,68.54
2023-09-11T15:24:44.437Z,68.40
2023-09-11T15:27:13.082Z,68.67
2023-09-11T15:29:41.605Z,68.78
2023-09-11T15:32:12.635Z,68.77
2023-09-11T15:34:42.895Z,68.65
2023-09-11T15:37:17.101Z,68.53
2023-09-11T15:39:45.327Z,68.42
2023-09-11T15:42:13.451Z,68.42
2023-09-11T15:44:41.657Z,68.55
2023-09-11T15:47:09.573Z,68.66
2023-09-11T15:49:38.299Z,68.74
2023-09-11T15:52:06.740Z,68.80
2023-09-11T15:54:35.042Z,68.89
2023-09-11T15:57:03.099Z,68.91
2023-09-11T15:59:31.286Z,69.05
2023-09-11T16:01:59.778Z,69.10
2023-09-11T16:04:27.857Z,69.08
2023-09-11T16:06:57.317Z,69.09
2023-09-11T16:09:25.149Z,69.03
2023-09-11T16:11:54.374Z,68.98
2023-09-11T16:14:22.428Z,69.00
2023-09-11T16:16:51.943Z,68.99
2023-09-11T16:19:23.132Z,68.99
2023-09-11T16:21:51.784Z,68.96
2023-09-11T16:24:19.819Z,68.90
2023-09-11T16:26:47.888Z,68.96
2023-09-11T16:29:15.993Z,69.01
2023-09-11T16:31:43.915Z,68.91
2023-09-11T16:34:12.109Z,68.91
2023-09-11T16:36:41.018Z,69.01
2023-09-11T16:39:08.990Z,69.05
2023-09-11T16:41:37.011Z,68.96
2023-09-11T16:44:05.394Z,68.85
2023-09-11T16:46:33.355Z,68.94
2023-09-11T16:49:01.461Z,68.89
2023-09-11T16:51:29.495Z,68.85
2023-09-11T16:53:57.511Z,68.85
2023-09-11T16:56:26.367Z,68.90
2023-09-11T16:58:54.431Z,68.97
2023-09-11T17:01:22.570Z,68.98
2023-09-11T17:03:50.588Z,69.01
2023-09-11T17:06:18.546Z,69.13
2023-09-11T17:08:46.470Z,69.07
2023-09-11T17:11:14.667Z,69.06
2023-09-11T17:13:46.616Z,69.07
2023-09-11T17:16:14.610Z,69.04
2023-09-11T17:18:48.075Z,69.11
2023-09-11T17:21:16.376Z,69.11
2023-09-11T17:23:44.502Z,69.21
2023-09-11T17:26:14.101Z,69.15
2023-09-11T17:28:42.278Z,69.20
2023-09-11T17:31:10.279Z,69.22
2023-09-11T17:33:38.030Z,69.16
2023-09-11T17:36:06.021Z,69.16
2023-09-11T17:38:33.857Z,69.06
2023-09-11T17:41:01.606Z,69.07
2023-09-11T17:43:30.227Z,69.11
2023-09-11T17:46:01.575Z,69.13
2023-09-11T17:48:29.384Z,69.16
2023-09-11T17:50:57.004Z,69.25
2023-09-11T17:53:24.645Z,69.27
2023-09-11T17:55:52.267Z,69.30
2023-09-11T17:58:19.845Z,69.26
2023-09-11T18:00:47.491Z,69.23
2023-09-11T18:03:15.505Z,69.19
2023-09-11T18:05:43.355Z,69.24
2023-09-11T18:08:11.126Z,69.28
2023-09-11T18:10:38.983Z,69.44
2023-09-11T18:13:06.699Z,69.60
2023-09-11T18:15:34.467Z,69.69
2023-09-11T18:18:02.204Z,69.83
2023-09-11T18:20:30.023Z,69.85
2023-09-11T18:23:03.557Z,69.81
2023-09-11T18:25:31.677Z,69.82
2023-09-11T18:27:59.544Z,69.84
2023-09-11T18:30:27.459Z,69.92
2023-09-11T18:32:56.450Z,69.84
2023-09-11T18:35:24.413Z,69.75
2023-09-11T18:37:52.476Z,69.74
2023-09-11T18:40:20.514Z,69.83
2023-09-11T18:42:48.424Z,70.00
2023-09-11T18:45:16.426Z,70.17
2023-09-11T18:47:44.561Z,70.27
2023-09-11T18:50:12.567Z,70.37
2023-09-11T18:52:43.401Z,70.67
2023-09-11T18:55:11.830Z,70.80
2023-09-11T18:57:39.780Z,70.74
2023-09-11T19:00:08.414Z,70.70
2023-09-11T19:02:36.371Z,70.68
2023-09-11T19:05:04.520Z,70.67
2023-09-11T19:07:32.522Z,70.56
2023-09-11T19:10:00.457Z,70.48
2023-09-11T19:12:28.438Z,70.61
2023-09-11T19:14:56.446Z,70.74
2023-09-11T19:17:24.369Z,70.78
2023-09-11T19:19:52.374Z,70.76
2023-09-11T19:22:20.325Z,70.90
2023-09-11T19:24:48.239Z,70.91
2023-09-11T19:27:16.105Z,70.84
2023-09-11T19:29:44.514Z,70.76
2023-09-11T19:32:13.318Z,70.64
2023-09-11T19:34:41.446Z,70.51
2023-09-11T19:37:09.280Z,70.45
2023-09-11T19:39:38.872Z,70.40
2023-09-11T19:42:06.978Z,70.36
2023-09-11T19:44:34.954Z,70.35
2023-09-11T19:47:02.779Z,70.26
2023-09-11T19:49:30.664Z,70.23
2023-09-11T19:51:58.713Z,70.19
2023-09-11T19:54:26.798Z,70.21
2023-09-11T19:56:54.824Z,70.11
2023-09-11T19:59:22.851Z,70.05
2023-09-11T20:01:50.789Z,70.04
2023-09-11T20:04:18.872Z,70.09
2023-09-11T20:06:47.735Z,70.21
2023-09-11T20:09:15.748Z,70.29
2023-09-11T20:11:46.294Z,70.41
2023-09-11T20:14:16.907Z,70.52
2023-09-11T20:16:45.362Z,70.58
2023-09-11T20:19:16.506Z,70.61
2023-09-11T20:21:44.385Z,70.69
2023-09-11T20:24:12.363Z,70.76
2023-09-11T20:26:40.263Z,70.76
2023-09-11T20:29:08.051Z,70.77
2023-09-11T20:31:35.801Z,70.75
2023-09-11T20:34:03.546Z,70.77
2023-09-11T20:36:31.329Z,70.90
2023-09-11T20:38:58.937Z,70.94
2023-09-11T20:41:26.656Z,71.09
2023-09-11T20:43:54.469Z,71.18
2023-09-11T20:46:22.384Z,71.12
2023-09-11T20:48:52.054Z,71.20
2023-09-11T20:51:20.038Z,71.22
2023-09-11T20:53:48.514Z,71.22
2023-09-11T20:56:16.233Z,71.25
2023-09-11T20:58:44.519Z,71.27
2023-09-11T21:01:12.411Z,71.20
2023-09-11T21:03:40.208Z,71.18
2023-09-11T21:06:09.951Z,71.18
2023-09-11T21:08:37.900Z,71.26
2023-09-11T21:11:05.765Z,71.32
2023-09-11T21:13:33.604Z,71.59
2023-09-11T21:16:01.263Z,71.73
2023-09-11T21:18:28.920Z,71.99
2023-09-11T21:20:56.595Z,72.54
2023-09-11T21:23:26.421Z,72.88
2023-09-11T21:25:54.146Z,73.26
2023-09-11T21:28:21.882Z,73.18
2023-09-11T21:30:50.524Z,72.99
2023-09-11T21:33:18.292Z,72.94
2023-09-11T21:35:46.157Z,72.79
2023-09-11T21:38:13.738Z,72.64
2023-09-11T21:40:41.387Z,72.56
2023-09-11T21:43:09.152Z,72.49
2023-09-11T21:45:45.773Z,72.55
2023-09-11T21:48:13.557Z,72.51
2023-09-11T21:50:41.476Z,72.49
2023-09-11T21:53:09.169Z,72.45
2023-09-11T21:55:36.875Z,72.38
2023-09-11T21:58:04.622Z,72.42
2023-09-11T22:00:32.660Z,72.44
2023-09-11T22:03:00.667Z,72.38
2023-09-11T22:05:29.193Z,72.42
2023-09-11T22:07:58.296Z,72.44
2023-09-11T22:10:25.994Z,72.46
2023-09-11T22:12:53.741Z,72.49
2023-09-11T22:15:21.467Z,72.59
2023-09-11T22:17:49.215Z,72.79
2023-09-11T22:20:16.812Z,72.83
2023-09-11T22:22:44.408Z,72.79
2023-09-11T22:25:12.189Z,72.87
2023-09-11T22:27:40.133Z,72.84
2023-09-11T22:30:08.394Z,72.78
2023-09-11T22:32:49.117Z,72.73
2023-09-11T22:35:21.209Z,72.78
2023-09-11T22:37:48.817Z,72.88
2023-09-11T22:40:16.487Z,72.92
2023-09-11T22:42:44.187Z,72.94
2023-09-11T22:45:11.942Z,72.96
2023-09-11T22:47:40.993Z,73.10
2023-09-11T22:50:09.460Z,73.12
2023-09-11T22:52:38.990Z,73.15
2023-09-11T22:55:07.554Z,73.10
2023-09-11T22:57:35.253Z,73.12
2023-09-11T23:00:03.428Z,73.17
2023-09-11T23:02:34.332Z,73.18
2023-09-11T23:05:02.069Z,73.23
2023-09-11T23:07:32.246Z,73.30
2023-09-11T23:09:59.844Z,73.28
2023-09-11T23:12:27.735Z,73.27
2023-09-11T23:14:56.583Z,73.18
2023-09-11T23:17:24.445Z,73.10
2023-09-11T23:19:52.074Z,73.05
2023-09-11T23:22:19.743Z,73.00
2023-09-11T23:24:47.346Z,72.95
2023-09-11T23:27:15.089Z,72.92
2023-09-11T23:29:43.162Z,72.85
2023-09-11T23:32:10.845Z,72.84
2023-09-11T23:34:38.627Z,72.73
2023-09-11T23:37:06.250Z,72.68
2023-09-11T23:39:33.993Z,72.68
2023-09-11T23:42:01.762Z,72.62
2023-09-11T23:44:29.412Z,72.61
2023-09-11T23:46:57.110Z,72.64
2023-09-11T23:49:24.759Z,72.67
2023-09-11T23:51:52.340Z,72.70
2023-09-11T23:54:20.403Z,72.81
2023-09-11T23:56:48.050Z,72.84
2023-09-11T23:59:16.425Z,72.90
